createdAt,value
2022-09-07T03:20:14.381Z,1
2022-09-07T04:10:14.400Z,2
2022-09-07T04:19:14.583Z,3
2022-09-07T05:42:14.465Z,5
2022-09-07T06:36:14.478Z,6
2022-09-07T07:14:14.542Z,6
2022-09-07T07:15:14.509Z,6
2022-09-07T07:16:14.606Z,4
2022-09-07T07:17:14.494Z,6
2022-09-07T07:18:21.142Z,5
2022-09-07T07:19:14.506Z,5
2022-09-07T07:20:14.509Z,5
2022-09-07T07:21:14.514Z,5
2022-09-07T07:22:35.947Z,5
2022-09-07T07:23:14.487Z,4
2022-09-07T07:24:14.494Z,5
2022-09-07T07:26:14.500Z,5
2022-09-07T07:27:14.497Z,5
2022-09-07T07:29:15.883Z,4
2022-09-07T07:30:14.529Z,5
2022-09-07T07:33:14.527Z,5
2022-09-07T07:34:14.544Z,5
2022-09-07T07:40:14.968Z,4
2022-09-07T07:43:14.504Z,4
2022-09-07T07:44:14.504Z,4
2022-09-07T07:50:43.756Z,4
2022-09-07T07:51:14.516Z,5
2022-09-07T07:54:14.515Z,6
2022-09-07T07:55:44.319Z,6
2022-09-07T07:56:14.512Z,6
2022-09-07T07:57:14.509Z,6
2022-09-07T07:58:14.566Z,6
2022-09-07T07:59:15.871Z,6
2022-09-07T08:00:14.546Z,6
2022-09-07T08:01:14.575Z,6
2022-09-07T08:02:14.647Z,6
2022-09-07T08:03:14.557Z,6
2022-09-07T08:04:14.562Z,6
2022-09-07T08:05:14.547Z,6
2022-09-07T08:06:14.524Z,6
2022-09-07T08:07:14.525Z,6
2022-09-07T08:08:14.531Z,6
2022-09-07T08:09:14.517Z,6
2022-09-07T08:10:14.520Z,6
2022-09-07T08:14:14.539Z,6
2022-09-07T08:15:14.579Z,5
2022-09-07T08:16:14.553Z,5
2022-09-07T08:17:14.528Z,6
2022-09-07T08:18:14.531Z,5
2022-09-07T08:19:14.519Z,5
2022-09-07T08:20:14.545Z,5
2022-09-07T08:21:14.542Z,5
2022-09-07T08:22:14.524Z,5
2022-09-07T08:23:14.526Z,5
2022-09-07T08:24:14.536Z,5
2022-09-07T08:26:14.545Z,6
2022-09-07T08:27:14.527Z,5
2022-09-07T08:28:14.567Z,5
2022-09-07T08:29:14.534Z,5
2022-09-07T08:30:14.539Z,5
2022-09-07T08:31:14.566Z,5
2022-09-07T08:32:14.545Z,5
2022-09-07T08:33:14.548Z,5
2022-09-07T08:34:14.530Z,5
2022-09-07T08:35:14.532Z,5
2022-09-07T08:36:14.558Z,5
2022-09-07T08:37:14.532Z,5
2022-09-07T08:38:16.948Z,5
2022-09-07T08:39:14.591Z,6
2022-09-07T08:40:14.626Z,6
2022-09-07T08:41:14.552Z,5
2022-09-07T08:42:14.577Z,5
2022-09-07T08:43:15.703Z,6
2022-09-07T08:44:14.563Z,5
2022-09-07T08:45:14.550Z,5
2022-09-07T08:46:14.604Z,6
2022-09-07T08:47:14.547Z,6
2022-09-07T08:48:14.553Z,5
2022-09-07T08:50:14.552Z,5
2022-09-07T08:51:14.540Z,6
2022-09-07T08:52:14.536Z,5
2022-09-07T08:53:14.573Z,5
2022-09-07T08:54:14.546Z,5
2022-09-07T08:55:14.548Z,6
2022-09-07T08:56:14.565Z,5
2022-09-07T08:57:21.685Z,5
2022-09-07T08:58:32.680Z,5
2022-09-07T08:59:14.539Z,6
2022-09-07T09:00:14.546Z,5
2022-09-07T09:02:26.280Z,5
2022-09-07T09:02:32.694Z,6
2022-09-07T09:03:30.602Z,6
2022-09-07T09:04:16.562Z,6
2022-09-07T09:05:17.581Z,6
2022-09-07T09:06:14.848Z,6
2022-09-07T09:07:14.617Z,6
2022-09-07T09:08:14.579Z,6
2022-09-07T09:09:14.557Z,5
2022-09-07T09:10:14.561Z,6
2022-09-07T09:14:14.563Z,6
2022-09-07T09:15:14.575Z,5
2022-09-07T09:16:14.677Z,6
2022-09-07T09:17:14.568Z,6
2022-09-07T09:18:14.672Z,6
2022-09-07T09:19:14.569Z,6
2022-09-07T09:20:14.699Z,6
2022-09-07T09:21:14.573Z,6
2022-09-07T09:22:14.581Z,5
2022-09-07T09:26:14.576Z,6
2022-09-07T09:27:14.579Z,5
2022-09-07T09:28:14.582Z,5
2022-09-07T09:29:14.577Z,5
2022-09-07T09:30:14.620Z,5
2022-09-07T09:31:14.635Z,5
2022-09-07T09:32:14.570Z,6
2022-09-07T09:33:14.569Z,5
2022-09-07T09:34:14.577Z,5
2022-09-07T09:35:14.602Z,5
2022-09-07T09:36:14.563Z,6
2022-09-07T09:37:14.577Z,6
2022-09-07T09:38:14.632Z,7
2022-09-07T09:39:14.575Z,7
2022-09-07T09:40:14.692Z,7
2022-09-07T09:41:14.593Z,7
2022-09-07T09:45:14.591Z,7
2022-09-07T09:46:14.585Z,7
2022-09-07T09:47:30.614Z,7
2022-09-07T09:48:14.588Z,6
2022-09-07T09:49:14.579Z,7
2022-09-07T09:52:27.548Z,7
2022-09-07T09:52:32.620Z,7
2022-09-07T09:53:14.585Z,7
2022-09-07T09:54:14.606Z,7
2022-09-07T10:00:21.343Z,6
2022-09-07T10:01:23.110Z,6
2022-09-07T10:04:17.540Z,7
2022-09-07T10:05:14.667Z,7
2022-09-07T10:06:14.592Z,7
2022-09-07T10:07:14.604Z,7
2022-09-07T10:08:14.597Z,8
2022-09-07T10:09:14.624Z,7
2022-09-07T10:10:14.592Z,8
2022-09-07T10:11:14.595Z,7
2022-09-07T10:12:14.608Z,7
2022-09-07T10:13:14.604Z,8
2022-09-07T10:14:14.597Z,8
2022-09-07T10:15:14.594Z,9
2022-09-07T10:16:14.663Z,9
2022-09-07T10:17:14.598Z,9
2022-09-07T10:18:14.599Z,10
2022-09-07T10:23:14.585Z,9
2022-09-07T10:25:14.617Z,6
2022-09-07T10:28:14.615Z,6
2022-09-07T10:29:15.152Z,7
2022-09-07T10:30:14.607Z,6
2022-09-07T10:31:15.519Z,6
2022-09-07T10:32:14.601Z,5
2022-09-07T10:34:29.986Z,5
2022-09-07T10:35:14.865Z,5
2022-09-07T10:36:14.615Z,5
2022-09-07T10:37:14.606Z,5
2022-09-07T10:38:15.083Z,6
2022-09-07T10:39:14.605Z,5
2022-09-07T10:40:16.106Z,5
2022-09-07T10:41:14.606Z,5
2022-09-07T10:42:14.603Z,6
2022-09-07T10:43:22.312Z,5
2022-09-07T10:44:14.623Z,5
2022-09-07T10:46:14.896Z,4
2022-09-07T10:47:16.683Z,5
2022-09-07T10:48:14.611Z,5
2022-09-07T10:49:14.679Z,4
2022-09-07T10:50:22.401Z,5
2022-09-07T10:51:14.676Z,6
2022-09-07T10:52:14.622Z,6
2022-09-07T10:53:39.563Z,5
2022-09-07T10:54:30.840Z,6
2022-09-07T10:55:14.597Z,5
2022-09-07T10:56:15.016Z,4
2022-09-07T10:57:14.608Z,5
2022-09-07T11:01:14.728Z,6
2022-09-07T11:02:14.708Z,6
2022-09-07T11:03:30.120Z,6
2022-09-07T11:04:14.628Z,6
2022-09-07T11:05:14.626Z,6
2022-09-07T11:07:15.707Z,6
2022-09-07T11:08:14.630Z,5
2022-09-07T11:09:16.916Z,6
2022-09-07T11:10:14.636Z,6
2022-09-07T11:11:14.627Z,7
2022-09-07T11:12:14.623Z,5
2022-09-07T11:13:14.622Z,6
2022-09-07T11:14:14.632Z,5
2022-09-07T11:18:14.623Z,6
2022-09-07T11:19:42.335Z,7
2022-09-07T11:21:14.902Z,5
2022-09-07T11:22:14.639Z,6
2022-09-07T11:23:14.646Z,6
2022-09-07T11:24:14.636Z,5
2022-09-07T11:25:30.193Z,7
2022-09-07T11:26:14.642Z,6
2022-09-07T11:27:14.638Z,6
2022-09-07T11:31:14.687Z,5
2022-09-07T11:32:14.646Z,6
2022-09-07T11:33:14.631Z,5
2022-09-07T11:34:30.102Z,4
2022-09-07T11:35:14.674Z,5
2022-09-07T11:36:14.656Z,5
2022-09-07T11:37:14.637Z,5
2022-09-07T11:38:14.644Z,5
2022-09-07T11:39:14.648Z,5
2022-09-07T11:40:14.684Z,5
2022-09-07T11:41:14.638Z,5
2022-09-07T11:42:44.234Z,5
2022-09-07T11:43:14.657Z,4
2022-09-07T11:44:14.650Z,5
2022-09-07T11:45:14.655Z,4
2022-09-07T11:46:14.660Z,5
2022-09-07T11:47:14.636Z,5
2022-09-07T11:48:19.494Z,6
2022-09-07T11:49:14.655Z,6
2022-09-07T11:50:14.648Z,4
2022-09-07T11:51:14.653Z,6
2022-09-07T11:52:14.667Z,5
2022-09-07T11:54:14.669Z,5
2022-09-07T11:55:14.638Z,5
2022-09-07T11:56:14.644Z,5
2022-09-07T11:57:14.656Z,4
2022-09-07T11:58:14.663Z,4
2022-09-07T11:59:14.690Z,6
2022-09-07T12:00:14.663Z,6
2022-09-07T12:01:14.661Z,5
2022-09-07T12:02:14.706Z,5
2022-09-07T12:03:14.704Z,5
2022-09-07T12:04:15.528Z,5
2022-09-07T12:05:14.642Z,5
2022-09-07T12:06:14.661Z,5
2022-09-07T12:07:14.661Z,5
2022-09-07T12:08:14.656Z,4
2022-09-07T12:09:14.671Z,6
2022-09-07T12:10:14.647Z,6
2022-09-07T12:11:14.659Z,5
2022-09-07T12:12:14.649Z,4
2022-09-07T12:13:14.678Z,5
2022-09-07T12:14:14.717Z,5
2022-09-07T12:15:14.666Z,5
2022-09-07T12:16:14.721Z,4
2022-09-07T12:17:14.645Z,5
2022-09-07T12:18:14.652Z,5
2022-09-07T12:19:14.653Z,6
2022-09-07T12:20:14.678Z,5
2022-09-07T12:21:14.658Z,4
2022-09-07T12:22:14.657Z,5
2022-09-07T12:23:14.652Z,5
2022-09-07T12:24:14.685Z,5
2022-09-07T12:25:14.699Z,5
2022-09-07T12:28:18.647Z,4
2022-09-07T12:29:14.675Z,4
2022-09-07T12:30:14.686Z,5
2022-09-07T12:31:14.752Z,4
2022-09-07T12:33:14.681Z,4
2022-09-07T12:34:14.672Z,4
2022-09-07T12:35:14.668Z,4
2022-09-07T12:36:14.690Z,5
2022-09-07T12:37:14.687Z,6
2022-09-07T12:38:14.690Z,5
2022-09-07T12:42:44.045Z,5
2022-09-07T12:43:14.714Z,5
2022-09-07T12:44:14.694Z,5
2022-09-07T12:45:14.666Z,6
2022-09-07T12:47:14.666Z,5
2022-09-07T12:48:14.669Z,5
2022-09-07T12:49:14.668Z,6
2022-09-07T12:50:14.665Z,5
2022-09-07T12:51:14.831Z,5
2022-09-07T12:52:16.117Z,4
2022-09-07T12:54:14.671Z,4
2022-09-07T12:55:27.971Z,4
2022-09-07T12:56:16.296Z,4
2022-09-07T12:57:30.179Z,3
2022-09-07T12:58:14.666Z,5
2022-09-07T12:59:19.824Z,4
2022-09-07T13:00:14.679Z,4
2022-09-07T13:01:14.942Z,4
2022-09-07T13:02:14.860Z,4
2022-09-07T13:04:14.682Z,4
2022-09-07T13:05:15.482Z,4
2022-09-07T13:06:14.685Z,4
2022-09-07T13:07:14.691Z,4
2022-09-07T13:08:14.684Z,8
2022-09-07T13:09:14.689Z,6
2022-09-07T13:10:14.673Z,4
2022-09-07T13:11:14.682Z,4
2022-09-07T13:12:52.863Z,5
2022-09-07T13:13:14.689Z,4
2022-09-07T13:15:23.892Z,4
2022-09-07T13:16:14.740Z,4
2022-09-07T13:17:16.314Z,4
2022-09-07T13:18:14.696Z,4
2022-09-07T13:19:14.688Z,4
2022-09-07T13:20:14.692Z,4
2022-09-07T13:25:14.692Z,4
2022-09-07T13:26:14.699Z,4
2022-09-07T13:27:14.974Z,4
2022-09-07T13:28:14.717Z,4
2022-09-07T13:30:14.700Z,4
2022-09-07T13:31:14.800Z,3
2022-09-07T13:32:14.868Z,4
2022-09-07T13:33:14.694Z,5
2022-09-07T13:34:14.701Z,4
2022-09-07T13:35:14.702Z,4
2022-09-07T13:36:14.703Z,4
2022-09-07T13:37:14.697Z,4
2022-09-07T13:38:14.690Z,4
2022-09-07T13:39:14.704Z,4
2022-09-07T13:40:14.755Z,4
2022-09-07T13:43:14.695Z,4
2022-09-07T13:44:14.701Z,4
2022-09-07T13:45:14.723Z,4
2022-09-07T13:46:14.779Z,3
2022-09-07T13:51:14.722Z,3
2022-09-07T13:52:14.706Z,4
2022-09-07T13:53:14.706Z,3
2022-09-07T13:54:14.708Z,4
2022-09-07T13:55:14.712Z,4
2022-09-07T13:57:14.706Z,3
2022-09-07T13:58:14.728Z,3
2022-09-07T13:59:14.707Z,3
2022-09-07T14:00:14.720Z,5
2022-09-07T14:01:14.771Z,3
2022-09-07T14:02:14.760Z,3
2022-09-07T14:03:14.720Z,3
2022-09-07T14:04:14.717Z,3
2022-09-07T14:05:14.714Z,3
2022-09-07T14:06:14.732Z,3
2022-09-07T14:07:14.726Z,3
2022-09-07T14:08:14.713Z,3
2022-09-07T14:09:14.714Z,3
2022-09-07T14:10:14.731Z,3
2022-09-07T14:11:14.709Z,3
2022-09-07T14:12:14.712Z,3
2022-09-07T14:13:14.714Z,2
2022-09-07T14:14:14.722Z,3
2022-09-07T14:15:14.722Z,3
2022-09-07T14:16:14.737Z,3
2022-09-07T14:18:14.756Z,2
2022-09-07T14:19:15.111Z,2
2022-09-07T14:20:14.716Z,2
2022-09-07T14:21:14.721Z,2
2022-09-07T14:22:14.717Z,2
2022-09-07T14:23:14.722Z,2
2022-09-07T14:24:14.724Z,2
2022-09-07T14:25:14.725Z,3
2022-09-07T14:26:16.943Z,3
2022-09-07T14:27:14.724Z,2
2022-09-07T14:28:14.748Z,3
2022-09-07T14:29:14.732Z,2
2022-09-07T14:30:14.726Z,2
2022-09-07T14:31:14.783Z,3
2022-09-07T14:32:14.729Z,3
2022-09-07T14:33:14.729Z,2
2022-09-07T14:34:14.732Z,2
2022-09-07T14:35:14.730Z,2
2022-09-07T14:36:37.331Z,2
2022-09-07T14:37:14.726Z,3
2022-09-07T14:39:15.038Z,4
2022-09-07T14:40:14.806Z,3
2022-09-07T14:41:14.724Z,3
2022-09-07T14:42:15.218Z,3
2022-09-07T14:43:15.328Z,2
2022-09-07T14:44:14.730Z,2
2022-09-07T14:45:14.742Z,5
2022-09-07T14:46:14.756Z,3
2022-09-07T14:47:14.737Z,3
2022-09-07T14:48:16.416Z,4
2022-09-07T14:49:14.731Z,3
2022-09-07T14:50:15.478Z,3
2022-09-07T14:51:30.174Z,3
2022-09-07T14:52:14.738Z,3
2022-09-07T14:53:41.723Z,3
2022-09-07T14:54:14.739Z,2
2022-09-07T14:55:14.774Z,2
2022-09-07T14:56:14.734Z,2
2022-09-07T14:57:14.734Z,2
2022-09-07T14:58:14.744Z,2
2022-09-07T15:00:14.733Z,2
2022-09-07T15:01:42.438Z,2
2022-09-07T15:02:14.771Z,3
2022-09-07T15:03:14.845Z,2
2022-09-07T15:04:14.850Z,4
2022-09-07T15:05:14.746Z,6
2022-09-07T15:07:14.755Z,3
2022-09-07T15:08:14.791Z,3
2022-09-07T15:09:14.760Z,2
2022-09-07T15:10:14.984Z,3
2022-09-07T15:11:43.399Z,3
2022-09-07T15:12:14.764Z,2
2022-09-07T15:13:14.759Z,3
2022-09-07T15:14:14.762Z,2
2022-09-07T15:15:14.753Z,2
2022-09-07T15:16:14.789Z,2
2022-09-07T15:17:43.947Z,2
2022-09-07T15:18:14.797Z,2
2022-09-07T15:19:14.791Z,3
2022-09-07T15:20:14.757Z,3
2022-09-07T15:21:14.763Z,2
2022-09-07T15:22:14.761Z,1
2022-09-07T15:23:14.764Z,1
2022-09-07T15:24:16.420Z,2
2022-09-07T15:25:15.104Z,2
2022-09-07T15:27:14.769Z,2
2022-09-07T15:28:15.284Z,3
2022-09-07T15:29:14.790Z,2
2022-09-07T15:30:17.276Z,2
2022-09-07T15:34:15.782Z,2
2022-09-07T15:35:15.904Z,2
2022-09-07T15:36:14.761Z,2
2022-09-07T15:39:14.759Z,1
2022-09-07T15:40:14.802Z,1
2022-09-07T15:41:24.446Z,2
2022-09-07T15:43:20.577Z,2
2022-09-07T15:44:14.803Z,1
2022-09-07T15:45:14.769Z,1
2022-09-07T15:46:14.821Z,1
2022-09-07T15:48:14.771Z,3
2022-09-07T15:49:14.844Z,2
2022-09-07T15:50:14.793Z,2
2022-09-07T15:55:17.509Z,1
2022-09-07T15:56:14.781Z,1
2022-09-07T16:00:15.322Z,1
2022-09-07T16:03:14.931Z,1
2022-09-07T16:04:15.043Z,1
2022-09-07T16:05:14.874Z,1
2022-09-07T16:06:14.800Z,1
2022-09-07T16:09:14.797Z,1
2022-09-07T16:10:14.789Z,1
2022-09-07T16:11:18.434Z,1
2022-09-07T16:13:16.782Z,1
2022-09-07T16:14:14.778Z,1
2022-09-07T16:15:14.779Z,1
2022-09-07T16:18:16.936Z,1
2022-09-07T16:19:15.369Z,1
2022-09-07T16:20:14.784Z,1
2022-09-07T16:21:14.865Z,1
2022-09-07T16:23:13.128Z,2
2022-09-07T16:23:15.933Z,1
2022-09-07T16:24:14.791Z,1
2022-09-07T16:25:14.798Z,1
2022-09-07T16:26:14.827Z,1
2022-09-07T16:27:14.796Z,1
2022-09-07T16:28:14.793Z,1
2022-09-07T16:29:14.798Z,1
2022-09-07T16:30:14.815Z,1
2022-09-07T16:31:14.791Z,1
2022-09-07T16:33:14.879Z,1
2022-09-07T16:34:14.802Z,1
2022-09-07T16:35:14.817Z,1
2022-09-07T16:36:15.981Z,1
2022-09-07T16:37:14.792Z,1
2022-09-07T16:38:44.913Z,1
2022-09-07T16:39:14.799Z,1
2022-09-07T16:40:14.851Z,1
2022-09-07T16:41:14.804Z,1
2022-09-07T16:42:15.049Z,1
2022-09-07T16:43:14.828Z,1
2022-09-07T16:44:15.599Z,1
2022-09-07T16:46:14.817Z,1
2022-09-07T16:47:14.808Z,1
2022-09-07T16:48:14.799Z,1
2022-09-07T16:50:16.047Z,1
2022-09-07T16:51:14.813Z,1
2022-09-07T16:52:14.857Z,1
2022-09-07T16:53:14.803Z,1
2022-09-07T16:54:14.805Z,1
2022-09-07T16:56:16.670Z,1
2022-09-07T16:57:15.614Z,1
2022-09-07T16:58:43.680Z,1
2022-09-07T16:59:14.807Z,1
2022-09-07T17:03:14.805Z,1
2022-09-07T17:04:14.879Z,1
2022-09-07T17:05:14.850Z,1
2022-09-07T17:06:14.810Z,1
2022-09-07T17:07:14.812Z,1
2022-09-07T17:09:14.816Z,1
2022-09-07T17:10:14.829Z,1
2022-09-07T17:11:14.823Z,1
2022-09-07T17:12:14.821Z,1
2022-09-07T17:13:14.831Z,1
2022-09-07T17:14:14.830Z,1
2022-09-07T17:15:14.821Z,1
2022-09-07T17:17:14.814Z,1
2022-09-07T17:18:15.164Z,1
2022-09-07T17:19:30.630Z,1
2022-09-07T17:20:14.816Z,1
2022-09-07T17:21:14.830Z,1
2022-09-07T17:22:14.829Z,1
2022-09-07T17:23:14.902Z,1
2022-09-07T17:24:14.826Z,1
2022-09-07T17:26:14.830Z,1
2022-09-07T17:27:14.830Z,1
2022-09-07T17:28:15.281Z,1
2022-09-07T17:29:14.833Z,1
2022-09-07T17:32:23.752Z,1
2022-09-07T17:32:23.858Z,1
2022-09-07T17:33:14.874Z,1
2022-09-07T17:34:14.836Z,1
2022-09-07T17:35:14.840Z,1
2022-09-07T17:36:14.841Z,1
2022-09-07T17:39:16.777Z,1
2022-09-07T17:40:14.919Z,1
2022-09-07T17:41:14.851Z,2
2022-09-07T17:44:14.835Z,1
2022-09-07T17:45:14.837Z,1
2022-09-07T17:46:14.891Z,1
2022-09-07T17:47:14.841Z,1
2022-09-07T17:48:14.836Z,2
2022-09-07T17:49:14.839Z,1
2022-09-07T17:50:14.845Z,1
2022-09-07T17:51:14.843Z,1
2022-09-07T17:52:14.843Z,1
2022-09-07T17:53:14.844Z,1
2022-09-07T17:54:14.930Z,2
2022-09-07T17:55:14.850Z,1
2022-09-07T17:56:14.838Z,1
2022-09-07T17:57:14.844Z,2
2022-09-07T18:00:14.838Z,1
2022-09-07T18:01:14.955Z,1
2022-09-07T18:02:14.857Z,1
2022-09-07T18:03:14.862Z,2
2022-09-07T18:04:14.887Z,1
2022-09-07T18:06:14.857Z,2
2022-09-07T18:07:15.580Z,2
2022-09-07T18:08:14.844Z,1
2022-09-07T18:09:14.851Z,1
2022-09-07T18:10:14.851Z,1
2022-09-07T18:12:14.852Z,1
2022-09-07T18:13:14.862Z,2
2022-09-07T18:14:15.207Z,1
2022-09-07T18:15:14.877Z,1
2022-09-07T18:16:14.952Z,1
2022-09-07T18:17:14.879Z,1
2022-09-07T18:18:14.853Z,2
2022-09-07T18:20:14.855Z,1
2022-09-07T18:21:15.238Z,2
2022-09-07T18:22:15.294Z,1
2022-09-07T18:24:14.868Z,2
2022-09-07T18:26:15.792Z,2
2022-09-07T18:27:14.860Z,1
2022-09-07T18:29:27.786Z,2
2022-09-07T18:30:14.929Z,2
2022-09-07T18:32:14.885Z,1
2022-09-07T18:33:14.885Z,2
2022-09-07T18:34:14.882Z,2
2022-09-07T18:35:14.872Z,2
2022-09-07T18:36:14.856Z,2
2022-09-07T18:37:14.868Z,2
2022-09-07T18:38:14.895Z,2
2022-09-07T18:39:14.866Z,2
2022-09-07T18:41:14.865Z,2
2022-09-07T18:42:14.878Z,1
2022-09-07T18:43:16.370Z,2
2022-09-07T18:45:30.229Z,2
2022-09-07T18:46:15.612Z,2
2022-09-07T18:47:21.656Z,2
2022-09-07T18:48:14.877Z,2
2022-09-07T18:49:14.972Z,2
2022-09-07T18:50:14.880Z,2
2022-09-07T18:51:14.874Z,2
2022-09-07T18:53:16.706Z,2
2022-09-07T18:54:14.873Z,2
2022-09-07T18:55:14.877Z,2
2022-09-07T18:57:15.489Z,2
2022-09-07T18:58:15.268Z,2
2022-09-07T18:59:15.335Z,2
2022-09-07T19:01:15.010Z,2
2022-09-07T19:03:14.873Z,2
2022-09-07T19:06:14.896Z,2
2022-09-07T19:07:14.883Z,2
2022-09-07T19:08:14.896Z,2
2022-09-07T19:09:14.876Z,3
2022-09-07T19:10:14.872Z,2
2022-09-07T19:11:14.888Z,2
2022-09-07T19:12:14.881Z,2
2022-09-07T19:15:14.890Z,2
2022-09-07T19:16:14.955Z,2
2022-09-07T19:17:14.897Z,3
2022-09-07T19:20:14.879Z,2
2022-09-07T19:22:14.892Z,3
2022-09-07T19:23:14.897Z,2
2022-09-07T19:24:14.915Z,3
2022-09-07T19:31:14.936Z,2
2022-09-07T19:37:14.906Z,3
